Latest Weather Observations for Bradshaw

IDD60801

Issued at 12:05 pm CST Thursday 23 October 2014 (issued every 30 minutes, with the page automatically refreshed every 10 minutes)

About weather observations | Map of weather stations | Latest weather observations for NT | Other Formats
Station Details ID: 014954 Name: BRADSHAW Lat: -14.94 Lon: 130.81 Height: 75.0 m
Data from the previous 72 hours. | See also: Recent months at Bradshaw
Date/Time
CST
Temp
°C
App
Temp
°C
Dew
Point
Rel
Hum
%
Delta-T
°C
Wind Press
QNH
hPa
Press
MSL
hPa
Rain
since 9 am
mm
Dir
 
Spd
km/h
Gust
km/h
Spd
kts
Gust
kts
23/12:00pm 36.6 35.0 15.1 27 13.5 NNE 17 24 9 13 1013.5 1012.9 0.0
23/11:30am 35.4 34.2 16.2 32 12.2 NNE 17 24 9 13 1014.2 - 0.0
23/11:00am 34.5 33.0 16.4 34 11.5 NNE 19 30 10 16 1014.6 - 0.0
23/10:00am 32.8 35.1 20.7 49 8.1 N 9 17 5 9 1015.6 - 0.0
23/09:30am 32.0 34.5 21.8 54 6.9 N 11 19 6 10 1015.9 - 0.0
23/09:00am 30.2 32.4 21.8 60 5.7 N 13 24 7 13 1016.2 1015.7 0.0
23/08:30am 29.4 31.7 22.1 65 4.9 NE 13 19 7 10 1016.3 - 0.0
23/08:00am 28.4 31.3 21.7 67 4.5 N 9 15 5 8 1015.8 - 0.0
23/07:30am 27.7 30.6 21.7 70 4.0 NNE 9 13 5 7 1015.3 - 0.0
23/07:00am 26.1 29.2 21.5 76 3.1 NE 7 9 4 5 1015.1 - 0.0
23/06:30am 25.3 28.0 21.4 79 2.6 NE 9 13 5 7 1014.6 - 0.0
23/06:00am 24.8 28.9 20.7 78 2.7 CALM 0 0 0 0 1014.3 1013.7 0.0
23/05:30am 25.3 28.6 21.4 79 2.6 W 6 7 3 4 1013.7 - 0.0
23/05:00am 25.8 29.0 21.7 78 2.7 NW 7 13 4 7 1013.3 - 0.0
23/04:30am 25.8 28.3 21.7 78 2.7 NW 11 19 6 10 1013.0 - 0.0
23/04:00am 26.2 28.5 21.4 75 3.2 NNW 11 19 6 10 1012.7 - 0.0
23/03:30am 26.6 28.9 21.4 73 3.5 N 11 20 6 11 1012.6 - 0.0
23/03:00am 26.5 28.6 21.0 72 3.6 NNW 11 19 6 10 1012.3 1011.7 0.0
23/02:30am 26.7 28.7 20.8 70 3.9 NNW 11 15 6 8 1012.1 - 0.0
23/02:00am 26.8 28.3 19.7 65 4.6 NNE 11 13 6 7 1012.7 - 0.0
23/01:30am 26.9 29.6 19.5 64 4.8 NNE 4 9 2 5 1012.4 - 0.0
23/01:00am 27.6 30.1 20.2 64 4.9 NE 7 9 4 5 1012.6 - 0.0
23/12:30am 28.1 30.8 20.6 63 5.0 NNW 7 9 4 5 1012.6 - 0.0
23/12:00am 28.6 30.7 20.9 63 5.1 NW 11 15 6 8 1013.0 1012.4 0.0
 
Date/Time
CST
Temp
°C
App
Temp
°C
Dew
Point
Rel
Hum
%
Delta-T
°C
Wind Press
QNH
hPa
Press
MSL
hPa
Rain
since 9 am
mm
Dir
 
Spd
km/h
Gust
km/h
Spd
kts
Gust
kts
22/11:30pm 28.5 31.5 20.8 63 5.1 WNW 6 17 3 9 1013.0 - 0.0
22/11:00pm 29.2 31.6 20.9 61 5.5 NNW 9 13 5 7 1013.1 - 0.0
22/10:30pm 29.8 32.6 20.4 57 6.2 NW 6 7 3 4 1013.2 - 0.0
22/10:00pm 30.5 32.0 19.8 52 7.0 NNW 11 15 6 8 1012.9 - 0.0
22/09:30pm 31.3 31.3 15.3 38 9.9 NW 9 15 5 8 1012.7 - 0.0
22/09:00pm 30.9 29.8 8.6 25 12.4 NE 4 7 2 4 1012.2 1011.6 0.0
22/08:30pm 31.4 30.9 7.8 23 13.0 CALM 0 0 0 0 1011.9 - 0.0
22/08:00pm 33.5 31.9 8.2 21 14.2 NE 6 7 3 4 1011.6 - 0.0
22/07:30pm 34.6 32.9 8.4 20 14.8 ENE 7 9 4 5 1011.3 - 0.0
22/07:00pm 35.5 33.0 8.3 19 15.4 ENE 11 13 6 7 1011.1 - 0.0
22/06:30pm 36.6 33.8 8.4 18 16.1 E 13 17 7 9 1010.7 - 0.0
22/06:00pm 37.4 34.9 8.2 17 16.7 E 11 19 6 10 1010.4 1009.8 0.0
22/05:30pm 37.9 34.5 7.7 16 17.1 ESE 15 22 8 12 1010.2 - 0.0
22/05:00pm 38.5 35.6 8.2 16 17.4 E 13 20 7 11 1010.0 - 0.0
22/04:30pm 38.9 35.3 8.5 16 17.5 E 17 22 9 12 1010.0 - 0.0
22/04:00pm 38.6 35.6 9.2 17 17.1 ENE 15 24 8 13 1010.2 - 0.0
22/03:30pm 38.9 35.6 9.4 17 17.2 ESE 17 24 9 13 1010.5 - 0.0
22/03:00pm 37.8 34.3 11.0 20 16.0 ENE 20 30 11 16 1010.8 1010.2 0.0
22/02:30pm 38.0 35.1 11.1 20 16.1 ESE 17 26 9 14 1011.2 - 0.0
22/02:00pm 36.7 34.7 11.5 22 15.0 N 13 20 7 11 1011.7 - 0.0
22/01:30pm 36.8 34.8 11.6 22 15.1 NE 13 20 7 11 1012.3 - 0.0
22/01:00pm 37.1 34.7 13.8 25 14.4 NE 19 33 10 18 1013.1 - 0.0
22/12:30pm 36.4 36.7 16.0 29 13.0 E 9 15 5 8 1013.5 - 0.0
22/12:00pm 36.7 36.7 16.3 30 13.0 WNW 11 26 6 14 1014.1 1013.5 0.0
22/11:30am 34.8 35.1 17.9 36 11.0 N 13 19 7 10 1014.7 - 0.0
22/11:00am 33.9 34.2 18.8 41 9.9 NNW 15 24 8 13 1015.2 - 0.0
22/10:30am 33.6 34.1 20.0 44 9.1 WNW 17 26 9 14 1015.6 - 0.0
22/10:00am 31.5 32.3 19.8 49 7.7 N 15 22 8 12 1016.1 - 0.0
22/09:30am 31.2 33.0 21.1 55 6.8 NW 13 20 7 11 1016.2 - 0.0
22/09:00am 30.2 32.5 22.1 62 5.5 NNW 13 19 7 10 1016.3 1015.8 0.0
22/08:30am 29.5 31.5 22.2 65 5.0 NNW 15 20 8 11 1016.2 - 0.0
22/08:00am 28.0 29.9 22.0 70 4.0 NNW 15 24 8 13 1015.7 - 0.0
22/07:30am 26.8 28.4 21.5 72 3.5 NNW 15 20 8 11 1015.4 - 0.0
22/07:00am 25.7 27.8 20.9 75 3.2 NNW 11 17 6 9 1015.3 - 0.0
22/06:30am 25.4 27.3 20.6 75 3.2 NNW 11 19 6 10 1015.1 - 0.0
22/06:00am 25.2 27.4 20.5 75 3.1 NNW 9 15 5 8 1014.8 1014.2 0.0
22/05:30am 25.3 27.2 20.5 75 3.1 N 11 15 6 8 1014.3 - 0.0
22/05:00am 25.9 27.4 20.5 72 3.5 N 13 20 7 11 1013.9 - 0.0
22/04:30am 25.7 27.1 20.3 72 3.5 N 13 20 7 11 1013.0 - 0.0
22/04:00am 25.3 27.6 19.9 72 3.5 NNE 7 9 4 5 1012.9 - 0.0
22/03:30am 25.5 28.3 19.6 70 3.8 NE 4 9 2 5 1012.7 - 0.0
22/03:00am 26.4 28.6 20.5 70 3.9 NNW 9 11 5 6 1012.3 1011.7 0.0
22/02:30am 26.6 28.9 20.7 70 3.9 NNW 9 11 5 6 1012.5 - 0.0
22/02:00am 26.9 29.1 20.3 67 4.3 NNW 9 11 5 6 1012.8 - 0.0
22/01:30am 27.4 30.5 20.2 65 4.7 NNW 4 9 2 5 1013.2 - 0.0
22/01:00am 27.8 30.0 20.4 64 4.9 N 9 13 5 7 1013.6 - 0.0
22/12:30am 27.8 30.2 20.1 63 5.1 N 7 9 4 5 1013.8 - 0.0
22/12:00am 27.6 29.8 18.3 57 5.9 N 4 9 2 5 1014.2 1013.6 0.0
 
Date/Time
CST
Temp
°C
App
Temp
°C
Dew
Point
Rel
Hum
%
Delta-T
°C
Wind Press
QNH
hPa
Press
MSL
hPa
Rain
since 9 am
mm
Dir
 
Spd
km/h
Gust
km/h
Spd
kts
Gust
kts
21/11:30pm 28.5 31.0 20.2 60 5.5 NNW 7 9 4 5 1014.4 - 0.0
21/11:00pm 28.8 31.3 20.3 60 5.6 NNW 7 11 4 6 1014.3 - 0.0
21/10:30pm 29.5 33.3 20.1 57 6.2 CALM 0 0 0 0 1014.5 - 0.0
21/10:00pm 30.1 32.4 20.6 56 6.3 NW 9 15 5 8 1014.2 - 0.0
21/09:30pm 30.5 33.0 19.8 52 7.0 NW 6 9 3 5 1014.0 - 0.0
21/09:00pm 31.1 32.8 20.1 52 7.3 WNW 11 17 6 9 1013.6 1013.0 0.0
21/08:30pm 32.2 33.7 19.8 48 8.2 NW 11 15 6 8 1013.4 - 0.0
21/08:00pm 32.4 30.8 8.6 23 13.3 E 7 15 4 8 1012.8 - 0.0
21/07:30pm 35.0 33.6 8.7 20 15.0 ENE 6 7 3 4 1012.4 - 0.0
21/07:00pm 35.5 33.2 9.1 20 15.1 ENE 11 15 6 8 1012.0 - 0.0
21/06:30pm 36.5 33.7 8.4 18 16.0 E 13 17 7 9 1011.8 - 0.0
21/06:00pm 37.5 35.6 9.2 18 16.4 ESE 9 17 5 9 1011.6 1011.0 0.0
21/05:30pm 37.9 34.9 7.7 16 17.1 ESE 13 24 7 13 1011.2 - 0.0
21/05:00pm 38.3 34.4 7.1 15 17.6 ESE 17 26 9 14 1011.1 - 0.0
21/04:30pm 37.4 34.9 8.2 17 16.7 SSE 11 17 6 9 1011.2 - 0.0
21/04:00pm 38.5 35.2 8.2 16 17.4 ESE 15 22 8 12 1011.3 - 0.0
21/03:30pm 37.8 35.2 9.4 18 16.5 E 13 20 7 11 1011.5 - 0.0
21/03:00pm 38.8 37.2 10.2 18 16.9 W 9 17 5 9 1011.6 1011.0 0.0
21/02:30pm 38.4 34.8 10.7 19 16.5 E 20 33 11 18 1012.1 - 0.0
21/02:00pm 37.2 33.6 10.5 20 15.7 ESE 20 30 11 16 1012.7 - 0.0
21/01:30pm 38.1 36.6 12.0 21 15.8 E 11 20 6 11 1013.2 - 0.0
21/01:00pm 37.9 36.6 13.8 23 14.9 ENE 13 24 7 13 1014.0 - 0.0
21/12:30pm 36.0 34.1 14.1 27 13.5 N 17 26 9 14 1014.6 - 0.0
21/12:00pm 36.2 34.3 15.3 28 13.1 N 19 24 10 13 1015.4 1014.9 0.0
21/11:30am 35.1 35.7 15.9 31 12.1 NNE 7 17 4 9 1015.9 - 0.0
21/11:00am 35.2 35.7 17.4 34 11.5 N 11 24 6 13 1016.3 - 0.0
21/10:30am 33.9 33.5 18.0 39 10.3 N 17 28 9 15 1016.6 - 0.0
21/10:00am 32.7 33.2 19.2 44 8.9 NNW 15 20 8 11 1016.8 - 0.0
21/09:30am 31.9 31.9 19.8 48 8.0 NNW 19 26 10 14 1017.0 - 0.0
21/09:00am 30.5 31.7 20.7 55 6.5 N 15 22 8 12 1017.1 1016.6 0.0
21/08:30am 30.6 32.4 21.9 59 5.9 N 15 20 8 11 1017.0 - 0.0
21/08:00am 29.1 31.3 22.6 68 4.4 N 15 20 8 11 1016.8 - 0.0
21/07:30am 27.7 31.6 22.6 74 3.5 NNW 6 7 3 4 1016.3 - 0.0
21/07:00am 26.3 31.0 21.9 77 2.9 CALM 0 0 0 0 1016.1 - 0.0
21/06:30am 25.4 29.9 21.5 79 2.6 CALM 0 0 0 0 1015.7 - 0.0
21/06:00am 25.4 29.4 20.6 75 3.1 CALM 0 0 0 0 1015.5 1015.0 0.0
21/05:30am 25.6 29.7 20.8 75 3.2 CALM 0 0 0 0 1015.1 - 0.0
21/05:00am 26.2 29.0 21.6 76 3.1 NNW 9 13 5 7 1014.6 - 0.0
21/04:30am 26.3 28.4 21.7 76 3.1 N 13 19 7 10 1014.5 - 0.0
21/04:00am 25.5 27.1 18.2 64 4.6 NE 7 9 4 5 1014.1 - 0.0
21/03:30am 26.1 28.2 20.2 70 3.9 NNW 9 11 5 6 1013.8 - 0.0
21/03:00am 26.6 29.2 19.2 64 4.8 N 4 9 2 5 1013.4 1012.8 0.0
21/02:30am 26.7 27.5 19.1 63 4.9 NW 13 17 7 9 1012.9 - 0.0
21/02:00am 26.6 27.9 18.5 61 5.2 WSW 9 11 5 6 1012.9 - 0.0
21/01:30am 28.5 29.2 19.7 59 5.8 N 15 24 8 13 1012.9 - 0.0
21/01:00am 27.1 25.9 6.5 27 10.8 SW 2 7 1 4 1012.9 - 0.0
21/12:30am 29.3 29.1 14.7 41 8.9 S 9 15 5 8 1013.1 - 0.0
21/12:00am 30.3 27.4 4.9 20 13.3 N 9 15 5 8 1013.0 1012.4 0.0
 
Date/Time
CST
Temp
°C
App
Temp
°C
Dew
Point
Rel
Hum
%
Delta-T
°C
Wind Press
QNH
hPa
Press
MSL
hPa
Rain
since 9 am
mm
Dir
 
Spd
km/h
Gust
km/h
Spd
kts
Gust
kts
20/11:30pm 27.5 24.7 5.1 24 11.5 N 9 13 5 7 1013.1 - 0.0
20/11:00pm 28.9 26.0 6.3 24 12.0 NE 11 13 6 7 1013.2 - 0.0
20/10:30pm 26.5 24.3 6.0 27 10.7 NE 7 11 4 6 1013.3 - 0.0
20/10:00pm 27.6 26.6 5.8 25 11.4 CALM 0 0 0 0 1013.2 - 0.0
20/09:30pm 29.6 28.6 5.6 22 12.6 CALM 0 2 0 1 1012.9 - 0.0
20/09:00pm 29.8 28.8 5.8 22 12.7 CALM 0 0 0 0 1012.6 1012.0 0.0
20/08:30pm 31.4 29.7 4.2 18 14.1 NE 2 6 1 3 1012.2 - 0.0
20/08:00pm 32.4 29.8 3.4 16 14.9 E 6 7 3 4 1011.9 - 0.0
20/07:30pm 34.7 31.2 3.3 14 16.4 E 11 13 6 7 1011.5 - 0.0
20/07:00pm 35.7 32.1 3.0 13 17.1 ESE 11 17 6 9 1011.0 - 0.0
20/06:30pm 36.6 33.3 2.6 12 17.7 E 9 15 5 8 1010.6 - 0.0
20/06:00pm 37.9 33.4 2.4 11 18.6 ESE 15 22 8 12 1010.3 1009.7 0.0
20/05:30pm 38.4 32.7 2.8 11 18.8 SE 22 32 12 17 1010.1 - 0.0
20/05:00pm 38.7 34.4 3.0 11 18.9 ENE 15 20 8 11 1009.9 - 0.0
20/04:30pm 39.2 34.2 3.4 11 19.2 ESE 19 32 10 17 1010.0 - 0.0
20/04:00pm 39.4 34.5 2.2 10 19.6 E 17 28 9 15 1010.4 - 0.0
20/03:30pm 38.7 33.0 3.0 11 18.9 ESE 22 35 12 19 1010.6 - 0.0
20/03:00pm 39.2 33.2 3.4 11 19.2 ESE 24 37 13 20 1011.0 1010.4 0.0
20/02:30pm 38.4 33.3 6.2 14 17.9 E 22 30 12 16 1011.6 - 0.0
20/02:00pm 37.7 34.9 10.1 19 16.2 E 15 22 8 12 1012.0 - 0.0
20/01:30pm 37.6 34.0 10.0 19 16.2 SE 19 33 10 18 1012.8 - 0.0
20/01:00pm 37.9 35.8 11.1 20 16.0 SSE 13 30 7 16 1013.4 - 0.0
20/12:30pm 36.2 33.1 10.4 21 15.1 ENE 17 26 9 14 1014.2 - 0.0

Other Formats:

Comma delimited format used in spreadsheet applications
http://www.bom.gov.au/fwo/IDD60801/IDD60801.94130.axf

JavaScript Object Notation format (JSON) in row-major order
http://www.bom.gov.au/fwo/IDD60801/IDD60801.94130.json